sensor_id;sensor_type;location;lat;lon;timestamp;P1;durP1;ratioP1;P2;durP2;ratioP2
75689;SDS011;64303;53.118;9.044;2022-12-18T00:02:00;22.48;;;19.48;;
75689;SDS011;64303;53.118;9.044;2022-12-18T00:04:27;27.77;;;20.50;;
75689;SDS011;64303;53.118;9.044;2022-12-18T00:06:53;23.55;;;19.40;;
75689;SDS011;64303;53.118;9.044;2022-12-18T00:09:20;23.30;;;17.25;;
75689;SDS011;64303;53.118;9.044;2022-12-18T00:11:47;21.42;;;17.25;;
75689;SDS011;64303;53.118;9.044;2022-12-18T00:14:15;23.33;;;16.88;;
75689;SDS011;64303;53.118;9.044;2022-12-18T00:16:43;21.65;;;19.23;;
75689;SDS011;64303;53.118;9.044;2022-12-18T00:19:10;24.90;;;18.05;;
75689;SDS011;64303;53.118;9.044;2022-12-18T00:21:36;25.67;;;19.75;;
75689;SDS011;64303;53.118;9.044;2022-12-18T00:24:03;21.45;;;17.40;;
75689;SDS011;64303;53.118;9.044;2022-12-18T00:26:31;24.33;;;17.40;;
75689;SDS011;64303;53.118;9.044;2022-12-18T00:29:01;19.33;;;15.25;;
75689;SDS011;64303;53.118;9.044;2022-12-18T00:31:31;21.35;;;18.65;;
75689;SDS011;64303;53.118;9.044;2022-12-18T00:34:00;17.48;;;15.75;;
75689;SDS011;64303;53.118;9.044;2022-12-18T00:36:27;22.40;;;20.23;;
75689;SDS011;64303;53.118;9.044;2022-12-18T00:38:56;23.60;;;21.23;;
75689;SDS011;64303;53.118;9.044;2022-12-18T00:41:23;19.50;;;17.35;;
75689;SDS011;64303;53.118;9.044;2022-12-18T00:44:11;19.42;;;16.73;;
75689;SDS011;64303;53.118;9.044;2022-12-18T00:46:40;19.08;;;17.27;;
75689;SDS011;64303;53.118;9.044;2022-12-18T00:49:07;19.25;;;17.52;;
75689;SDS011;64303;53.118;9.044;2022-12-18T00:51:34;20.73;;;16.08;;
75689;SDS011;64303;53.118;9.044;2022-12-18T00:54:00;23.80;;;18.67;;
75689;SDS011;64303;53.118;9.044;2022-12-18T00:56:27;22.20;;;18.63;;
75689;SDS011;64303;53.118;9.044;2022-12-18T00:58:54;20.48;;;18.25;;
75689;SDS011;64303;53.118;9.044;2022-12-18T01:01:20;16.88;;;15.32;;
75689;SDS011;64303;53.118;9.044;2022-12-18T01:03:49;18.70;;;15.45;;
75689;SDS011;64303;53.118;9.044;2022-12-18T01:06:15;19.58;;;17.77;;
75689;SDS011;64303;53.118;9.044;2022-12-18T01:08:43;18.63;;;13.20;;
75689;SDS011;64303;53.118;9.044;2022-12-18T01:11:12;20.77;;;17.25;;
75689;SDS011;64303;53.118;9.044;2022-12-18T01:13:40;16.90;;;15.32;;
75689;SDS011;64303;53.118;9.044;2022-12-18T01:16:07;18.55;;;16.67;;
75689;SDS011;64303;53.118;9.044;2022-12-18T01:18:35;16.77;;;14.77;;
75689;SDS011;64303;53.118;9.044;2022-12-18T01:21:06;20.73;;;15.85;;
75689;SDS011;64303;53.118;9.044;2022-12-18T01:23:36;20.20;;;14.25;;
75689;SDS011;64303;53.118;9.044;2022-12-18T01:26:06;17.98;;;16.27;;
75689;SDS011;64303;53.118;9.044;2022-12-18T01:28:34;17.08;;;14.20;;
75689;SDS011;64303;53.118;9.044;2022-12-18T01:31:09;20.85;;;18.70;;
75689;SDS011;64303;53.118;9.044;2022-12-18T01:33:37;19.65;;;15.88;;
75689;SDS011;64303;53.118;9.044;2022-12-18T01:36:06;18.35;;;16.52;;
75689;SDS011;64303;53.118;9.044;2022-12-18T01:41:00;15.82;;;14.27;;
75689;SDS011;64303;53.118;9.044;2022-12-18T01:43:41;18.05;;;16.25;;
75689;SDS011;64303;53.118;9.044;2022-12-18T01:46:09;17.10;;;15.10;;
75689;SDS011;64303;53.118;9.044;2022-12-18T01:48:36;17.55;;;13.75;;
75689;SDS011;64303;53.118;9.044;2022-12-18T01:51:03;18.73;;;16.95;;
75689;SDS011;64303;53.118;9.044;2022-12-18T01:53:32;16.67;;;14.98;;
75689;SDS011;64303;53.118;9.044;2022-12-18T01:55:59;20.55;;;16.40;;
75689;SDS011;64303;53.118;9.044;2022-12-18T01:58:27;17.80;;;15.95;;
75689;SDS011;64303;53.118;9.044;2022-12-18T02:00:56;17.83;;;16.13;;
75689;SDS011;64303;53.118;9.044;2022-12-18T02:03:23;17.02;;;15.43;;
75689;SDS011;64303;53.118;9.044;2022-12-18T02:05:51;15.73;;;14.38;;
75689;SDS011;64303;53.118;9.044;2022-12-18T02:08:25;17.92;;;15.70;;
75689;SDS011;64303;53.118;9.044;2022-12-18T02:11:00;17.55;;;14.88;;
75689;SDS011;64303;53.118;9.044;2022-12-18T02:13:32;20.55;;;16.98;;
75689;SDS011;64303;53.118;9.044;2022-12-18T02:16:06;15.52;;;14.10;;
75689;SDS011;64303;53.118;9.044;2022-12-18T02:18:40;21.10;;;17.17;;
75689;SDS011;64303;53.118;9.044;2022-12-18T02:21:11;20.95;;;18.77;;
75689;SDS011;64303;53.118;9.044;2022-12-18T02:23:46;18.52;;;14.25;;
75689;SDS011;64303;53.118;9.044;2022-12-18T02:26:20;18.95;;;17.23;;
75689;SDS011;64303;53.118;9.044;2022-12-18T02:28:54;20.17;;;18.20;;
75689;SDS011;64303;53.118;9.044;2022-12-18T02:31:28;15.95;;;14.40;;
75689;SDS011;64303;53.118;9.044;2022-12-18T02:33:58;19.55;;;16.92;;
75689;SDS011;64303;53.118;9.044;2022-12-18T02:36:26;17.45;;;15.52;;
75689;SDS011;64303;53.118;9.044;2022-12-18T02:38:55;19.90;;;18.08;;
75689;SDS011;64303;53.118;9.044;2022-12-18T02:41:24;18.33;;;14.23;;
75689;SDS011;64303;53.118;9.044;2022-12-18T02:43:53;18.20;;;16.55;;
75689;SDS011;64303;53.118;9.044;2022-12-18T02:46:26;17.85;;;15.68;;
75689;SDS011;64303;53.118;9.044;2022-12-18T02:49:02;20.83;;;18.80;;
75689;SDS011;64303;53.118;9.044;2022-12-18T02:51:37;21.80;;;17.38;;
75689;SDS011;64303;53.118;9.044;2022-12-18T02:54:13;19.08;;;16.48;;
75689;SDS011;64303;53.118;9.044;2022-12-18T02:56:49;19.80;;;17.75;;
75689;SDS011;64303;53.118;9.044;2022-12-18T02:59:21;20.02;;;18.05;;
75689;SDS011;64303;53.118;9.044;2022-12-18T03:01:54;18.20;;;16.48;;
75689;SDS011;64303;53.118;9.044;2022-12-18T03:04:25;21.55;;;15.05;;
75689;SDS011;64303;53.118;9.044;2022-12-18T03:06:53;15.52;;;12.48;;
75689;SDS011;64303;53.118;9.044;2022-12-18T03:09:22;16.58;;;14.98;;
75689;SDS011;64303;53.118;9.044;2022-12-18T03:11:54;17.00;;;14.48;;
75689;SDS011;64303;53.118;9.044;2022-12-18T03:14:39;13.05;;;10.85;;
75689;SDS011;64303;53.118;9.044;2022-12-18T03:17:09;16.77;;;15.10;;
75689;SDS011;64303;53.118;9.044;2022-12-18T03:19:37;15.07;;;13.50;;
75689;SDS011;64303;53.118;9.044;2022-12-18T03:22:05;15.65;;;14.27;;
75689;SDS011;64303;53.118;9.044;2022-12-18T03:24:42;16.48;;;13.68;;
75689;SDS011;64303;53.118;9.044;2022-12-18T03:27:12;16.60;;;14.85;;
75689;SDS011;64303;53.118;9.044;2022-12-18T03:29:42;14.05;;;12.40;;
75689;SDS011;64303;53.118;9.044;2022-12-18T03:32:15;13.15;;;12.00;;
75689;SDS011;64303;53.118;9.044;2022-12-18T03:34:44;15.02;;;13.52;;
75689;SDS011;64303;53.118;9.044;2022-12-18T03:37:15;16.95;;;11.60;;
75689;SDS011;64303;53.118;9.044;2022-12-18T03:39:42;13.27;;;11.93;;
75689;SDS011;64303;53.118;9.044;2022-12-18T03:42:10;14.75;;;13.02;;
75689;SDS011;64303;53.118;9.044;2022-12-18T03:44:49;14.98;;;13.45;;
75689;SDS011;64303;53.118;9.044;2022-12-18T03:47:22;17.02;;;12.48;;
75689;SDS011;64303;53.118;9.044;2022-12-18T03:49:56;15.48;;;13.75;;
75689;SDS011;64303;53.118;9.044;2022-12-18T03:52:26;14.43;;;12.95;;
75689;SDS011;64303;53.118;9.044;2022-12-18T03:54:55;15.95;;;14.55;;
75689;SDS011;64303;53.118;9.044;2022-12-18T03:57:24;17.05;;;15.32;;
75689;SDS011;64303;53.118;9.044;2022-12-18T03:59:54;16.42;;;14.63;;
75689;SDS011;64303;53.118;9.044;2022-12-18T04:02:26;14.65;;;13.20;;
75689;SDS011;64303;53.118;9.044;2022-12-18T04:04:55;16.65;;;15.07;;
75689;SDS011;64303;53.118;9.044;2022-12-18T04:07:25;14.50;;;13.00;;
75689;SDS011;64303;53.118;9.044;2022-12-18T04:09:53;15.65;;;14.05;;
75689;SDS011;64303;53.118;9.044;2022-12-18T04:12:25;14.20;;;12.27;;
75689;SDS011;64303;53.118;9.044;2022-12-18T04:14:52;14.70;;;13.30;;
75689;SDS011;64303;53.118;9.044;2022-12-18T04:17:18;15.15;;;13.55;;
75689;SDS011;64303;53.118;9.044;2022-12-18T04:19:46;14.15;;;12.65;;
75689;SDS011;64303;53.118;9.044;2022-12-18T04:22:13;14.57;;;13.25;;
75689;SDS011;64303;53.118;9.044;2022-12-18T04:24:44;15.40;;;14.18;;
75689;SDS011;64303;53.118;9.044;2022-12-18T04:27:19;14.32;;;12.93;;
75689;SDS011;64303;53.118;9.044;2022-12-18T04:29:50;11.60;;;10.63;;
75689;SDS011;64303;53.118;9.044;2022-12-18T04:32:17;13.88;;;12.50;;
75689;SDS011;64303;53.118;9.044;2022-12-18T04:34:44;14.77;;;13.00;;
75689;SDS011;64303;53.118;9.044;2022-12-18T04:37:10;17.13;;;15.13;;
75689;SDS011;64303;53.118;9.044;2022-12-18T04:39:38;13.25;;;11.88;;
75689;SDS011;64303;53.118;9.044;2022-12-18T04:42:10;14.43;;;12.95;;
75689;SDS011;64303;53.118;9.044;2022-12-18T04:44:37;13.93;;;12.68;;
75689;SDS011;64303;53.118;9.044;2022-12-18T04:47:05;14.25;;;11.32;;
75689;SDS011;64303;53.118;9.044;2022-12-18T04:49:32;14.25;;;12.82;;
75689;SDS011;64303;53.118;9.044;2022-12-18T04:51:59;14.20;;;11.98;;
75689;SDS011;64303;53.118;9.044;2022-12-18T04:54:26;12.98;;;11.50;;
75689;SDS011;64303;53.118;9.044;2022-12-18T04:56:52;12.80;;;10.85;;
75689;SDS011;64303;53.118;9.044;2022-12-18T04:59:19;16.08;;;14.57;;
75689;SDS011;64303;53.118;9.044;2022-12-18T05:01:46;13.00;;;11.77;;
75689;SDS011;64303;53.118;9.044;2022-12-18T05:04:14;16.50;;;15.18;;
75689;SDS011;64303;53.118;9.044;2022-12-18T05:06:40;14.80;;;13.30;;
75689;SDS011;64303;53.118;9.044;2022-12-18T05:09:07;17.48;;;13.63;;
75689;SDS011;64303;53.118;9.044;2022-12-18T05:11:34;13.55;;;10.45;;
75689;SDS011;64303;53.118;9.044;2022-12-18T05:14:00;13.90;;;12.52;;
75689;SDS011;64303;53.118;9.044;2022-12-18T05:16:27;17.17;;;15.73;;
75689;SDS011;64303;53.118;9.044;2022-12-18T05:18:54;15.52;;;14.20;;
75689;SDS011;64303;53.118;9.044;2022-12-18T05:21:22;13.75;;;12.32;;
75689;SDS011;64303;53.118;9.044;2022-12-18T05:23:49;13.18;;;11.95;;
75689;SDS011;64303;53.118;9.044;2022-12-18T05:26:16;12.95;;;11.65;;
75689;SDS011;64303;53.118;9.044;2022-12-18T05:28:44;13.48;;;12.25;;
75689;SDS011;64303;53.118;9.044;2022-12-18T05:31:11;17.55;;;15.95;;
75689;SDS011;64303;53.118;9.044;2022-12-18T05:33:38;14.73;;;11.73;;
75689;SDS011;64303;53.118;9.044;2022-12-18T05:36:05;14.70;;;13.55;;
75689;SDS011;64303;53.118;9.044;2022-12-18T05:38:36;12.15;;;11.13;;
75689;SDS011;64303;53.118;9.044;2022-12-18T05:41:04;14.50;;;13.15;;
75689;SDS011;64303;53.118;9.044;2022-12-18T05:43:31;12.70;;;11.32;;
75689;SDS011;64303;53.118;9.044;2022-12-18T05:45:57;13.48;;;11.68;;
75689;SDS011;64303;53.118;9.044;2022-12-18T05:48:24;13.65;;;12.05;;
75689;SDS011;64303;53.118;9.044;2022-12-18T05:50:51;13.57;;;11.68;;
75689;SDS011;64303;53.118;9.044;2022-12-18T05:53:18;15.75;;;14.27;;
75689;SDS011;64303;53.118;9.044;2022-12-18T05:55:47;12.60;;;11.15;;
75689;SDS011;64303;53.118;9.044;2022-12-18T05:58:14;14.00;;;12.57;;
75689;SDS011;64303;53.118;9.044;2022-12-18T06:00:43;18.35;;;16.77;;
75689;SDS011;64303;53.118;9.044;2022-12-18T06:03:10;14.85;;;13.32;;
75689;SDS011;64303;53.118;9.044;2022-12-18T06:05:39;15.20;;;11.70;;
75689;SDS011;64303;53.118;9.044;2022-12-18T06:08:07;12.98;;;11.52;;
75689;SDS011;64303;53.118;9.044;2022-12-18T06:10:34;12.93;;;11.68;;
75689;SDS011;64303;53.118;9.044;2022-12-18T06:13:02;15.35;;;13.90;;
75689;SDS011;64303;53.118;9.044;2022-12-18T06:15:29;15.73;;;14.38;;
75689;SDS011;64303;53.118;9.044;2022-12-18T06:17:56;12.25;;;11.07;;
75689;SDS011;64303;53.118;9.044;2022-12-18T06:20:22;12.95;;;11.73;;
75689;SDS011;64303;53.118;9.044;2022-12-18T06:22:49;13.75;;;12.45;;
75689;SDS011;64303;53.118;9.044;2022-12-18T06:25:16;15.55;;;12.85;;
75689;SDS011;64303;53.118;9.044;2022-12-18T06:27:43;15.57;;;13.60;;
75689;SDS011;64303;53.118;9.044;2022-12-18T06:30:11;15.63;;;14.43;;
75689;SDS011;64303;53.118;9.044;2022-12-18T06:35:05;18.20;;;16.58;;
75689;SDS011;64303;53.118;9.044;2022-12-18T06:37:33;14.88;;;13.52;;
75689;SDS011;64303;53.118;9.044;2022-12-18T06:39:59;12.95;;;10.57;;
75689;SDS011;64303;53.118;9.044;2022-12-18T06:42:26;13.82;;;11.90;;
75689;SDS011;64303;53.118;9.044;2022-12-18T06:44:54;11.50;;;10.30;;
75689;SDS011;64303;53.118;9.044;2022-12-18T06:47:22;15.60;;;11.02;;
75689;SDS011;64303;53.118;9.044;2022-12-18T06:49:49;13.65;;;12.25;;
75689;SDS011;64303;53.118;9.044;2022-12-18T06:52:16;11.70;;;10.75;;
75689;SDS011;64303;53.118;9.044;2022-12-18T06:54:42;13.93;;;12.52;;
75689;SDS011;64303;53.118;9.044;2022-12-18T06:57:09;12.02;;;11.02;;
75689;SDS011;64303;53.118;9.044;2022-12-18T06:59:36;15.68;;;14.15;;
75689;SDS011;64303;53.118;9.044;2022-12-18T07:02:03;13.20;;;9.73;;
75689;SDS011;64303;53.118;9.044;2022-12-18T07:04:31;15.80;;;14.15;;
75689;SDS011;64303;53.118;9.044;2022-12-18T07:06:58;14.80;;;10.23;;
75689;SDS011;64303;53.118;9.044;2022-12-18T07:09:24;31.42;;;19.15;;
75689;SDS011;64303;53.118;9.044;2022-12-18T07:11:51;11.82;;;10.23;;
75689;SDS011;64303;53.118;9.044;2022-12-18T07:14:18;11.20;;;10.20;;
75689;SDS011;64303;53.118;9.044;2022-12-18T07:16:44;11.27;;;10.25;;
75689;SDS011;64303;53.118;9.044;2022-12-18T07:19:11;14.35;;;13.05;;
75689;SDS011;64303;53.118;9.044;2022-12-18T07:21:39;12.20;;;10.98;;
75689;SDS011;64303;53.118;9.044;2022-12-18T07:24:06;11.75;;;10.63;;
75689;SDS011;64303;53.118;9.044;2022-12-18T07:26:33;11.45;;;9.18;;
75689;SDS011;64303;53.118;9.044;2022-12-18T07:29:00;11.27;;;10.30;;
75689;SDS011;64303;53.118;9.044;2022-12-18T07:31:27;14.48;;;13.15;;
75689;SDS011;64303;53.118;9.044;2022-12-18T07:33:54;13.20;;;10.50;;
75689;SDS011;64303;53.118;9.044;2022-12-18T07:36:22;13.57;;;12.30;;
75689;SDS011;64303;53.118;9.044;2022-12-18T07:38:50;12.65;;;11.45;;
75689;SDS011;64303;53.118;9.044;2022-12-18T07:43:44;13.32;;;12.10;;
75689;SDS011;64303;53.118;9.044;2022-12-18T07:46:12;15.13;;;13.75;;
75689;SDS011;64303;53.118;9.044;2022-12-18T07:48:39;12.32;;;11.05;;
75689;SDS011;64303;53.118;9.044;2022-12-18T07:51:07;13.48;;;11.98;;
75689;SDS011;64303;53.118;9.044;2022-12-18T07:53:34;14.50;;;13.20;;
75689;SDS011;64303;53.118;9.044;2022-12-18T07:56:03;12.95;;;11.77;;
75689;SDS011;64303;53.118;9.044;2022-12-18T07:58:31;15.35;;;11.75;;
75689;SDS011;64303;53.118;9.044;2022-12-18T08:01:01;16.80;;;12.13;;
75689;SDS011;64303;53.118;9.044;2022-12-18T08:03:29;14.57;;;13.20;;
75689;SDS011;64303;53.118;9.044;2022-12-18T08:05:57;14.10;;;12.73;;
75689;SDS011;64303;53.118;9.044;2022-12-18T08:08:25;12.68;;;11.55;;
75689;SDS011;64303;53.118;9.044;2022-12-18T08:10:52;19.08;;;14.98;;
75689;SDS011;64303;53.118;9.044;2022-12-18T08:13:21;13.55;;;12.35;;
75689;SDS011;64303;53.118;9.044;2022-12-18T08:15:54;11.98;;;10.95;;
75689;SDS011;64303;53.118;9.044;2022-12-18T08:18:21;13.77;;;12.68;;
75689;SDS011;64303;53.118;9.044;2022-12-18T08:20:48;14.32;;;11.65;;
75689;SDS011;64303;53.118;9.044;2022-12-18T08:23:15;16.98;;;15.57;;
75689;SDS011;64303;53.118;9.044;2022-12-18T08:25:42;17.80;;;16.38;;
75689;SDS011;64303;53.118;9.044;2022-12-18T08:28:09;17.33;;;15.50;;
75689;SDS011;64303;53.118;9.044;2022-12-18T08:30:37;17.55;;;14.93;;
75689;SDS011;64303;53.118;9.044;2022-12-18T08:33:04;18.85;;;17.25;;
75689;SDS011;64303;53.118;9.044;2022-12-18T08:35:34;17.33;;;14.18;;
75689;SDS011;64303;53.118;9.044;2022-12-18T08:38:01;16.83;;;15.13;;
75689;SDS011;64303;53.118;9.044;2022-12-18T08:40:30;19.10;;;16.85;;
75689;SDS011;64303;53.118;9.044;2022-12-18T08:42:57;16.63;;;11.30;;
75689;SDS011;64303;53.118;9.044;2022-12-18T08:45:43;34.42;;;15.32;;
75689;SDS011;64303;53.118;9.044;2022-12-18T08:48:09;20.45;;;14.85;;
75689;SDS011;64303;53.118;9.044;2022-12-18T08:50:36;23.30;;;17.48;;
75689;SDS011;64303;53.118;9.044;2022-12-18T08:53:03;24.02;;;17.02;;
75689;SDS011;64303;53.118;9.044;2022-12-18T08:55:29;18.58;;;16.80;;
75689;SDS011;64303;53.118;9.044;2022-12-18T08:57:56;17.65;;;14.80;;
75689;SDS011;64303;53.118;9.044;2022-12-18T09:00:23;16.73;;;13.48;;
75689;SDS011;64303;53.118;9.044;2022-12-18T09:02:50;14.48;;;12.73;;
75689;SDS011;64303;53.118;9.044;2022-12-18T09:05:17;20.60;;;16.20;;
75689;SDS011;64303;53.118;9.044;2022-12-18T09:07:44;17.95;;;15.82;;
75689;SDS011;64303;53.118;9.044;2022-12-18T09:10:11;17.15;;;14.68;;
75689;SDS011;64303;53.118;9.044;2022-12-18T09:12:37;22.17;;;14.63;;
75689;SDS011;64303;53.118;9.044;2022-12-18T09:15:05;14.57;;;11.63;;
75689;SDS011;64303;53.118;9.044;2022-12-18T09:17:32;15.88;;;13.85;;
75689;SDS011;64303;53.118;9.044;2022-12-18T09:20:00;15.27;;;11.23;;
75689;SDS011;64303;53.118;9.044;2022-12-18T09:22:27;15.48;;;13.43;;
75689;SDS011;64303;53.118;9.044;2022-12-18T09:24:53;15.05;;;12.50;;
75689;SDS011;64303;53.118;9.044;2022-12-18T09:27:20;17.10;;;15.40;;
75689;SDS011;64303;53.118;9.044;2022-12-18T09:29:47;16.75;;;13.95;;
75689;SDS011;64303;53.118;9.044;2022-12-18T09:32:13;13.75;;;11.48;;
75689;SDS011;64303;53.118;9.044;2022-12-18T09:34:40;13.70;;;12.35;;
75689;SDS011;64303;53.118;9.044;2022-12-18T09:37:08;14.35;;;13.07;;
75689;SDS011;64303;53.118;9.044;2022-12-18T09:39:35;11.73;;;10.00;;
75689;SDS011;64303;53.118;9.044;2022-12-18T09:42:02;13.48;;;12.23;;
75689;SDS011;64303;53.118;9.044;2022-12-18T09:44:30;15.55;;;13.20;;
75689;SDS011;64303;53.118;9.044;2022-12-18T09:47:06;11.48;;;10.38;;
75689;SDS011;64303;53.118;9.044;2022-12-18T09:49:36;15.43;;;12.60;;
75689;SDS011;64303;53.118;9.044;2022-12-18T09:52:09;14.85;;;13.48;;
75689;SDS011;64303;53.118;9.044;2022-12-18T09:54:40;17.33;;;11.30;;
75689;SDS011;64303;53.118;9.044;2022-12-18T09:57:10;15.35;;;13.98;;
75689;SDS011;64303;53.118;9.044;2022-12-18T09:59:40;10.60;;;9.60;;
75689;SDS011;64303;53.118;9.044;2022-12-18T10:02:15;12.00;;;10.82;;
75689;SDS011;64303;53.118;9.044;2022-12-18T10:04:42;13.10;;;9.82;;
75689;SDS011;64303;53.118;9.044;2022-12-18T10:07:12;12.32;;;10.85;;
75689;SDS011;64303;53.118;9.044;2022-12-18T10:09:43;12.48;;;11.05;;
75689;SDS011;64303;53.118;9.044;2022-12-18T10:12:17;11.90;;;10.38;;
75689;SDS011;64303;53.118;9.044;2022-12-18T10:14:49;13.85;;;12.07;;
75689;SDS011;64303;53.118;9.044;2022-12-18T10:17:22;12.60;;;11.45;;
75689;SDS011;64303;53.118;9.044;2022-12-18T10:19:54;13.18;;;11.75;;
75689;SDS011;64303;53.118;9.044;2022-12-18T10:22:33;12.55;;;11.10;;
75689;SDS011;64303;53.118;9.044;2022-12-18T10:25:10;12.45;;;10.38;;
75689;SDS011;64303;53.118;9.044;2022-12-18T10:27:43;11.40;;;10.27;;
75689;SDS011;64303;53.118;9.044;2022-12-18T10:30:12;12.98;;;11.65;;
75689;SDS011;64303;53.118;9.044;2022-12-18T10:32:39;11.75;;;9.98;;
75689;SDS011;64303;53.118;9.044;2022-12-18T10:35:07;14.23;;;12.98;;
75689;SDS011;64303;53.118;9.044;2022-12-18T10:40:29;12.57;;;11.30;;
75689;SDS011;64303;53.118;9.044;2022-12-18T10:43:05;14.02;;;12.88;;
75689;SDS011;64303;53.118;9.044;2022-12-18T10:45:37;14.02;;;12.02;;
75689;SDS011;64303;53.118;9.044;2022-12-18T10:48:04;10.27;;;9.27;;
75689;SDS011;64303;53.118;9.044;2022-12-18T10:50:43;11.48;;;10.05;;
75689;SDS011;64303;53.118;9.044;2022-12-18T10:53:15;12.07;;;10.98;;
75689;SDS011;64303;53.118;9.044;2022-12-18T10:55:44;15.15;;;14.02;;
75689;SDS011;64303;53.118;9.044;2022-12-18T10:58:23;14.98;;;13.45;;
75689;SDS011;64303;53.118;9.044;2022-12-18T11:01:02;15.18;;;13.40;;
75689;SDS011;64303;53.118;9.044;2022-12-18T11:03:34;12.18;;;11.05;;
75689;SDS011;64303;53.118;9.044;2022-12-18T11:08:30;10.43;;;9.27;;
75689;SDS011;64303;53.118;9.044;2022-12-18T11:10:58;15.52;;;14.00;;
75689;SDS011;64303;53.118;9.044;2022-12-18T11:13:25;12.60;;;11.52;;
75689;SDS011;64303;53.118;9.044;2022-12-18T11:15:53;13.85;;;11.77;;
75689;SDS011;64303;53.118;9.044;2022-12-18T11:18:22;11.15;;;9.77;;
75689;SDS011;64303;53.118;9.044;2022-12-18T11:20:52;12.07;;;10.05;;
75689;SDS011;64303;53.118;9.044;2022-12-18T11:23:21;15.38;;;13.85;;
75689;SDS011;64303;53.118;9.044;2022-12-18T11:25:54;13.10;;;11.63;;
75689;SDS011;64303;53.118;9.044;2022-12-18T11:28:27;12.00;;;10.82;;
75689;SDS011;64303;53.118;9.044;2022-12-18T11:31:09;10.93;;;9.48;;
75689;SDS011;64303;53.118;9.044;2022-12-18T11:33:42;10.65;;;9.13;;
75689;SDS011;64303;53.118;9.044;2022-12-18T11:36:12;12.13;;;11.05;;
75689;SDS011;64303;53.118;9.044;2022-12-18T11:38:39;13.52;;;9.98;;
75689;SDS011;64303;53.118;9.044;2022-12-18T11:41:10;11.32;;;9.80;;
75689;SDS011;64303;53.118;9.044;2022-12-18T11:43:40;12.50;;;11.25;;
75689;SDS011;64303;53.118;9.044;2022-12-18T11:46:12;13.40;;;12.20;;
75689;SDS011;64303;53.118;9.044;2022-12-18T11:48:41;11.77;;;10.65;;
75689;SDS011;64303;53.118;9.044;2022-12-18T11:51:14;13.48;;;12.40;;
75689;SDS011;64303;53.118;9.044;2022-12-18T11:53:45;15.95;;;11.55;;
75689;SDS011;64303;53.118;9.044;2022-12-18T11:56:18;14.82;;;13.50;;
75689;SDS011;64303;53.118;9.044;2022-12-18T11:58:56;13.00;;;11.70;;
75689;SDS011;64303;53.118;9.044;2022-12-18T12:01:34;11.82;;;10.77;;
75689;SDS011;64303;53.118;9.044;2022-12-18T12:04:10;11.57;;;10.43;;
75689;SDS011;64303;53.118;9.044;2022-12-18T12:06:47;11.80;;;10.65;;
75689;SDS011;64303;53.118;9.044;2022-12-18T12:09:19;11.35;;;10.30;;
75689;SDS011;64303;53.118;9.044;2022-12-18T12:11:53;10.30;;;9.25;;
75689;SDS011;64303;53.118;9.044;2022-12-18T12:14:32;12.23;;;11.00;;
75689;SDS011;64303;53.118;9.044;2022-12-18T12:17:06;11.40;;;10.30;;
75689;SDS011;64303;53.118;9.044;2022-12-18T12:19:38;12.55;;;11.25;;
75689;SDS011;64303;53.118;9.044;2022-12-18T12:22:10;11.25;;;10.15;;
75689;SDS011;64303;53.118;9.044;2022-12-18T12:24:45;11.45;;;10.25;;
75689;SDS011;64303;53.118;9.044;2022-12-18T12:27:22;13.07;;;11.77;;
75689;SDS011;64303;53.118;9.044;2022-12-18T12:29:58;12.55;;;11.32;;
75689;SDS011;64303;53.118;9.044;2022-12-18T12:32:42;9.25;;;8.35;;
75689;SDS011;64303;53.118;9.044;2022-12-18T12:35:17;10.52;;;9.52;;
75689;SDS011;64303;53.118;9.044;2022-12-18T12:37:53;10.65;;;9.32;;
75689;SDS011;64303;53.118;9.044;2022-12-18T12:40:23;11.60;;;8.85;;
75689;SDS011;64303;53.118;9.044;2022-12-18T12:42:53;11.13;;;9.60;;
75689;SDS011;64303;53.118;9.044;2022-12-18T12:45:41;12.25;;;11.07;;
75689;SDS011;64303;53.118;9.044;2022-12-18T12:48:13;13.23;;;12.05;;
75689;SDS011;64303;53.118;9.044;2022-12-18T12:50:43;11.25;;;10.05;;
75689;SDS011;64303;53.118;9.044;2022-12-18T12:53:13;12.48;;;11.52;;
75689;SDS011;64303;53.118;9.044;2022-12-18T12:55:47;9.85;;;8.85;;
75689;SDS011;64303;53.118;9.044;2022-12-18T12:58:16;10.23;;;8.32;;
75689;SDS011;64303;53.118;9.044;2022-12-18T13:00:49;14.52;;;10.75;;
75689;SDS011;64303;53.118;9.044;2022-12-18T13:03:23;10.25;;;9.27;;
75689;SDS011;64303;53.118;9.044;2022-12-18T13:08:24;10.13;;;9.25;;
75689;SDS011;64303;53.118;9.044;2022-12-18T13:13:49;10.98;;;9.90;;
75689;SDS011;64303;53.118;9.044;2022-12-18T13:16:17;11.40;;;10.30;;
75689;SDS011;64303;53.118;9.044;2022-12-18T13:18:48;12.55;;;10.20;;
75689;SDS011;64303;53.118;9.044;2022-12-18T13:21:17;15.88;;;11.75;;
75689;SDS011;64303;53.118;9.044;2022-12-18T13:23:48;15.23;;;11.68;;
75689;SDS011;64303;53.118;9.044;2022-12-18T13:26:28;11.95;;;10.77;;
75689;SDS011;64303;53.118;9.044;2022-12-18T13:28:59;11.70;;;10.50;;
75689;SDS011;64303;53.118;9.044;2022-12-18T13:34:34;13.13;;;11.73;;
75689;SDS011;64303;53.118;9.044;2022-12-18T13:43:22;12.65;;;10.25;;
75689;SDS011;64303;53.118;9.044;2022-12-18T13:45:59;11.27;;;10.18;;
75689;SDS011;64303;53.118;9.044;2022-12-18T13:48:32;12.05;;;10.98;;
75689;SDS011;64303;53.118;9.044;2022-12-18T13:51:01;18.65;;;14.98;;
75689;SDS011;64303;53.118;9.044;2022-12-18T13:53:30;13.77;;;11.02;;
75689;SDS011;64303;53.118;9.044;2022-12-18T13:56:03;12.75;;;11.27;;
75689;SDS011;64303;53.118;9.044;2022-12-18T13:58:30;14.27;;;11.43;;
75689;SDS011;64303;53.118;9.044;2022-12-18T14:00:59;15.57;;;14.20;;
75689;SDS011;64303;53.118;9.044;2022-12-18T14:03:28;9.55;;;8.65;;
75689;SDS011;64303;53.118;9.044;2022-12-18T14:05:58;11.43;;;10.50;;
75689;SDS011;64303;53.118;9.044;2022-12-18T14:08:29;12.55;;;9.35;;
75689;SDS011;64303;53.118;9.044;2022-12-18T14:11:00;11.20;;;9.32;;
75689;SDS011;64303;53.118;9.044;2022-12-18T14:13:27;12.57;;;10.38;;
75689;SDS011;64303;53.118;9.044;2022-12-18T14:15:56;9.73;;;8.75;;
75689;SDS011;64303;53.118;9.044;2022-12-18T14:18:26;11.63;;;9.80;;
75689;SDS011;64303;53.118;9.044;2022-12-18T14:20:57;12.15;;;9.88;;
75689;SDS011;64303;53.118;9.044;2022-12-18T14:23:27;10.95;;;9.95;;
75689;SDS011;64303;53.118;9.044;2022-12-18T14:25:55;11.07;;;10.15;;
75689;SDS011;64303;53.118;9.044;2022-12-18T14:28:22;11.02;;;10.07;;
75689;SDS011;64303;53.118;9.044;2022-12-18T14:30:51;11.00;;;10.07;;
75689;SDS011;64303;53.118;9.044;2022-12-18T14:33:19;13.63;;;12.40;;
75689;SDS011;64303;53.118;9.044;2022-12-18T14:38:21;10.63;;;9.75;;
75689;SDS011;64303;53.118;9.044;2022-12-18T14:40:56;10.52;;;9.77;;
75689;SDS011;64303;53.118;9.044;2022-12-18T14:43:24;12.48;;;11.23;;
75689;SDS011;64303;53.118;9.044;2022-12-18T14:45:51;10.80;;;9.80;;
75689;SDS011;64303;53.118;9.044;2022-12-18T14:48:19;9.98;;;9.02;;
75689;SDS011;64303;53.118;9.044;2022-12-18T14:50:55;8.60;;;7.10;;
75689;SDS011;64303;53.118;9.044;2022-12-18T14:53:32;10.30;;;8.65;;
75689;SDS011;64303;53.118;9.044;2022-12-18T14:56:00;11.07;;;10.13;;
75689;SDS011;64303;53.118;9.044;2022-12-18T14:58:27;13.95;;;12.57;;
75689;SDS011;64303;53.118;9.044;2022-12-18T15:00:54;11.25;;;9.63;;
75689;SDS011;64303;53.118;9.044;2022-12-18T15:03:21;10.43;;;9.60;;
75689;SDS011;64303;53.118;9.044;2022-12-18T15:05:48;8.50;;;7.45;;
75689;SDS011;64303;53.118;9.044;2022-12-18T15:08:27;10.43;;;9.32;;